createdAt,value
2022-10-22T00:01:24.918Z,100.00
2022-10-22T00:03:53.428Z,100.00
2022-10-22T00:06:22.126Z,100.00
2022-10-22T00:08:50.721Z,100.00
2022-10-22T00:11:20.424Z,100.00
2022-10-22T00:13:49.387Z,100.00
2022-10-22T00:16:17.984Z,100.00
2022-10-22T00:18:46.381Z,100.00
2022-10-22T00:21:14.912Z,100.00
2022-10-22T00:23:44.040Z,100.00
2022-10-22T00:26:12.909Z,100.00
2022-10-22T00:28:41.432Z,100.00
2022-10-22T00:31:14.118Z,100.00
2022-10-22T00:33:42.956Z,100.00
2022-10-22T00:36:20.478Z,100.00
2022-10-22T00:38:49.071Z,100.00
2022-10-22T00:41:17.755Z,100.00
2022-10-22T00:44:04.811Z,100.00
2022-10-22T00:46:33.355Z,100.00
2022-10-22T00:49:03.626Z,100.00
2022-10-22T00:51:35.062Z,100.00
2022-10-22T00:54:07.973Z,100.00
2022-10-22T00:56:36.556Z,100.00
2022-10-22T00:59:05.101Z,100.00
2022-10-22T01:01:33.688Z,100.00
2022-10-22T01:04:02.203Z,100.00
2022-10-22T01:06:33.409Z,100.00
2022-10-22T01:09:11.723Z,100.00
2022-10-22T01:12:26.647Z,100.00
2022-10-22T01:15:16.016Z,100.00
2022-10-22T01:18:23.675Z,100.00
2022-10-22T01:21:30.424Z,100.00
2022-10-22T01:25:00.882Z,100.00
2022-10-22T01:27:41.391Z,100.00
2022-10-22T01:30:13.567Z,100.00
2022-10-22T01:32:53.021Z,100.00
2022-10-22T01:35:30.939Z,100.00
2022-10-22T01:38:05.642Z,100.00
2022-10-22T01:40:35.533Z,100.00
2022-10-22T01:43:09.633Z,100.00
2022-10-22T01:45:51.156Z,100.00
2022-10-22T01:48:29.438Z,100.00
2022-10-22T01:51:27.296Z,100.00
2022-10-22T01:54:32.511Z,100.00
2022-10-22T01:57:23.323Z,100.00
2022-10-22T02:00:06.248Z,100.00
2022-10-22T02:03:10.063Z,100.00
2022-10-22T02:05:50.147Z,100.00
2022-10-22T02:08:24.580Z,100.00
2022-10-22T02:10:53.839Z,100.00
2022-10-22T02:13:27.609Z,100.00
2022-10-22T02:15:57.228Z,100.00
2022-10-22T02:18:29.112Z,100.00
2022-10-22T02:20:58.803Z,100.00
2022-10-22T02:23:29.797Z,100.00
2022-10-22T02:26:17.105Z,100.00
2022-10-22T02:29:14.679Z,100.00
2022-10-22T02:31:45.975Z,100.00
2022-10-22T02:34:23.488Z,100.00
2022-10-22T02:36:52.593Z,100.00
2022-10-22T02:39:21.471Z,100.00
2022-10-22T02:41:50.131Z,100.00
2022-10-22T02:44:22.397Z,100.00
2022-10-22T02:46:51.633Z,100.00
2022-10-22T02:49:20.476Z,100.00
2022-10-22T02:51:49.065Z,100.00
2022-10-22T02:54:17.592Z,100.00
2022-10-22T02:56:45.999Z,100.00
2022-10-22T02:59:14.571Z,100.00
2022-10-22T03:01:43.258Z,100.00
2022-10-22T03:04:11.904Z,100.00
2022-10-22T03:06:44.064Z,100.00
2022-10-22T03:09:12.754Z,100.00
2022-10-22T03:11:41.087Z,100.00
2022-10-22T03:14:10.062Z,100.00
2022-10-22T03:16:39.551Z,100.00
2022-10-22T03:19:08.281Z,100.00
2022-10-22T03:21:50.245Z,100.00
2022-10-22T03:24:25.078Z,100.00
2022-10-22T03:26:53.511Z,100.00
2022-10-22T03:29:24.452Z,100.00
2022-10-22T03:31:54.212Z,100.00
2022-10-22T03:34:22.778Z,100.00
2022-10-22T03:36:52.593Z,100.00
2022-10-22T03:39:21.984Z,100.00
2022-10-22T03:41:53.163Z,100.00
2022-10-22T03:44:22.766Z,100.00
2022-10-22T03:46:51.290Z,100.00
2022-10-22T03:49:19.792Z,100.00
2022-10-22T03:51:48.336Z,100.00
2022-10-22T03:54:17.179Z,100.00
2022-10-22T03:56:45.769Z,100.00
2022-10-22T03:59:15.229Z,100.00
2022-10-22T04:01:43.784Z,100.00
2022-10-22T04:04:12.445Z,100.00
2022-10-22T04:06:40.943Z,100.00
2022-10-22T04:09:09.412Z,100.00
2022-10-22T04:11:37.877Z,100.00
2022-10-22T04:14:06.454Z,100.00
2022-10-22T04:16:34.944Z,100.00
2022-10-22T04:19:03.838Z,100.00
2022-10-22T04:21:32.842Z,100.00
2022-10-22T04:24:01.642Z,100.00
2022-10-22T04:26:30.387Z,100.00
2022-10-22T04:28:58.967Z,100.00
2022-10-22T04:31:28.874Z,100.00
2022-10-22T04:33:59.403Z,100.00
2022-10-22T04:36:29.385Z,100.00
2022-10-22T04:39:01.465Z,100.00
2022-10-22T04:41:33.689Z,100.00
2022-10-22T04:44:02.666Z,100.00
2022-10-22T04:46:33.783Z,100.00
2022-10-22T04:49:04.204Z,100.00
2022-10-22T04:51:33.212Z,100.00
2022-10-22T04:54:02.141Z,100.00
2022-10-22T04:56:32.693Z,100.00
2022-10-22T04:59:05.589Z,100.00
2022-10-22T05:01:41.734Z,100.00
2022-10-22T05:04:16.485Z,100.00
2022-10-22T05:06:45.687Z,100.00
2022-10-22T05:09:20.542Z,100.00
2022-10-22T05:11:51.929Z,100.00
2022-10-22T05:14:24.519Z,100.00
2022-10-22T05:16:54.043Z,100.00
2022-10-22T05:19:33.660Z,100.00
2022-10-22T05:25:31.256Z,100.00
2022-10-22T05:28:00.383Z,100.00
2022-10-22T05:30:29.130Z,100.00
2022-10-22T05:32:57.847Z,100.00
2022-10-22T05:35:26.701Z,100.00
2022-10-22T05:40:31.203Z,100.00
2022-10-22T05:43:00.665Z,100.00
2022-10-22T05:45:29.432Z,100.00
2022-10-22T05:47:58.134Z,100.00
2022-10-22T05:50:26.728Z,100.00
2022-10-22T05:52:55.402Z,100.00
2022-10-22T05:55:24.057Z,100.00
2022-10-22T05:57:52.564Z,100.00
2022-10-22T06:00:21.572Z,100.00
2022-10-22T06:02:51.472Z,100.00
2022-10-22T06:05:19.920Z,100.00
2022-10-22T06:07:48.536Z,100.00
2022-10-22T06:10:20.486Z,100.00
2022-10-22T06:12:49.810Z,100.00
2022-10-22T06:15:20.587Z,100.00
2022-10-22T06:17:49.094Z,100.00
2022-10-22T06:20:17.718Z,100.00
2022-10-22T06:22:46.249Z,100.00
2022-10-22T06:25:15.256Z,100.00
2022-10-22T06:27:43.888Z,100.00
2022-10-22T06:30:13.115Z,100.00
2022-10-22T06:32:42.103Z,100.00
2022-10-22T06:35:11.165Z,100.00
2022-10-22T06:37:39.787Z,100.00
2022-10-22T06:40:09.063Z,100.00
2022-10-22T06:42:37.641Z,100.00
2022-10-22T06:45:07.934Z,100.00
2022-10-22T06:47:36.668Z,100.00
2022-10-22T06:50:05.698Z,100.00
2022-10-22T06:52:34.254Z,100.00
2022-10-22T06:55:02.882Z,100.00
2022-10-22T06:57:31.957Z,100.00
2022-10-22T07:00:00.650Z,100.00
2022-10-22T07:02:29.300Z,100.00
2022-10-22T07:04:57.996Z,100.00
2022-10-22T07:07:26.835Z,100.00
2022-10-22T07:09:57.830Z,100.00
2022-10-22T07:12:26.680Z,100.00
2022-10-22T07:14:55.899Z,100.00
2022-10-22T07:17:24.682Z,100.00
2022-10-22T07:19:53.377Z,100.00
2022-10-22T07:22:22.254Z,100.00
2022-10-22T07:24:50.803Z,100.00
2022-10-22T07:27:19.400Z,100.00
2022-10-22T07:29:47.966Z,100.00
2022-10-22T07:32:18.765Z,100.00
2022-10-22T07:34:49.422Z,100.00
2022-10-22T07:37:22.351Z,100.00
2022-10-22T07:39:51.088Z,100.00
2022-10-22T07:42:20.969Z,100.00
2022-10-22T07:44:49.597Z,100.00
2022-10-22T07:47:18.030Z,100.00
2022-10-22T07:49:46.437Z,100.00
2022-10-22T07:52:15.463Z,100.00
2022-10-22T07:54:43.909Z,100.00
2022-10-22T08:01:32.850Z,100.00
2022-10-22T08:04:00.292Z,100.00
2022-10-22T08:06:28.048Z,100.00
2022-10-22T08:08:55.325Z,100.00
2022-10-22T08:11:22.928Z,100.00
2022-10-22T08:13:49.944Z,100.00
2022-10-22T08:16:17.358Z,100.00
2022-10-22T08:18:44.842Z,100.00
2022-10-22T08:21:12.912Z,100.00
2022-10-22T08:23:40.253Z,100.00
2022-10-22T08:26:07.948Z,100.00
2022-10-22T08:28:36.671Z,100.00
2022-10-22T08:31:07.130Z,100.00
2022-10-22T08:33:34.498Z,100.00
2022-10-22T08:36:01.884Z,100.00
2022-10-22T08:38:30.793Z,100.00
2022-10-22T08:41:09.416Z,100.00
2022-10-22T08:44:07.583Z,100.00
2022-10-22T08:46:53.844Z,100.00
2022-10-22T08:49:30.110Z,100.00
2022-10-22T08:51:58.223Z,100.00
2022-10-22T08:54:37.473Z,100.00
2022-10-22T08:57:52.431Z,100.00
2022-10-22T09:00:43.738Z,98.42
2022-10-22T09:03:28.990Z,98.25
2022-10-22T09:06:10.860Z,96.80
2022-10-22T09:08:39.423Z,94.47
2022-10-22T09:11:13.194Z,93.31
2022-10-22T09:13:44.010Z,92.98
2022-10-22T09:16:36.547Z,93.12
2022-10-22T09:19:06.710Z,91.24
2022-10-22T09:21:42.938Z,91.92
2022-10-22T09:24:19.637Z,90.41
2022-10-22T09:26:46.712Z,89.12
2022-10-22T09:29:22.025Z,88.62
2022-10-22T09:31:49.933Z,87.91
2022-10-22T09:34:21.751Z,89.64
2022-10-22T09:37:03.589Z,88.04
2022-10-22T09:39:38.833Z,86.51
2022-10-22T09:42:10.248Z,88.39
2022-10-22T09:44:38.305Z,89.59
2022-10-22T09:47:07.502Z,88.98
2022-10-22T09:49:35.902Z,87.92
2022-10-22T09:52:03.074Z,86.92
2022-10-22T09:54:33.464Z,86.98
2022-10-22T09:57:06.524Z,84.96
2022-10-22T09:59:38.112Z,83.87
2022-10-22T10:02:37.159Z,82.17
2022-10-22T10:05:06.949Z,83.26
2022-10-22T10:07:35.791Z,83.19
2022-10-22T10:10:21.318Z,81.05
2022-10-22T10:12:59.649Z,81.42
2022-10-22T10:15:36.181Z,81.39
2022-10-22T10:18:19.419Z,79.75
2022-10-22T10:21:12.064Z,79.61
2022-10-22T10:24:03.614Z,78.81
2022-10-22T10:26:49.432Z,78.42
2022-10-22T10:30:03.568Z,79.02
2022-10-22T10:33:04.805Z,78.13
2022-10-22T10:36:18.070Z,76.85
2022-10-22T10:39:15.729Z,76.96
2022-10-22T10:42:13.610Z,76.40
2022-10-22T10:44:52.602Z,75.86
2022-10-22T10:47:43.884Z,75.80
2022-10-22T10:50:28.699Z,73.70
2022-10-22T10:53:29.276Z,73.14
2022-10-22T10:56:21.996Z,71.93
2022-10-22T10:59:12.377Z,72.61
2022-10-22T11:02:17.545Z,72.00
2022-10-22T11:04:57.906Z,71.16
2022-10-22T11:07:35.375Z,68.99
2022-10-22T11:10:15.634Z,68.92
2022-10-22T11:12:48.486Z,69.09
2022-10-22T11:15:34.940Z,68.48
2022-10-22T11:18:22.368Z,68.01
2022-10-22T11:21:12.391Z,67.48
2022-10-22T11:23:48.927Z,67.72
2022-10-22T11:27:02.890Z,65.67
2022-10-22T11:29:38.755Z,64.41
2022-10-22T11:32:13.088Z,64.36
2022-10-22T11:34:50.518Z,65.64
2022-10-22T11:37:18.266Z,64.18
2022-10-22T11:39:59.335Z,63.27
2022-10-22T11:42:46.320Z,62.33
2022-10-22T11:45:13.473Z,60.94
2022-10-22T11:48:18.441Z,60.98
2022-10-22T11:50:52.485Z,61.82
2022-10-22T11:53:25.698Z,63.00
2022-10-22T11:55:59.359Z,61.87
2022-10-22T11:58:38.851Z,60.44
2022-10-22T12:01:09.164Z,60.12
2022-10-22T12:03:43.502Z,59.92
2022-10-22T12:06:20.585Z,60.83
2022-10-22T12:08:54.078Z,60.71
2022-10-22T12:11:23.700Z,60.42
2022-10-22T12:14:15.522Z,58.89
2022-10-22T12:17:09.945Z,58.31
2022-10-22T12:19:40.776Z,59.92
2022-10-22T12:22:11.026Z,59.83
2022-10-22T12:24:42.216Z,58.70
2022-10-22T12:27:26.135Z,59.17
2022-10-22T12:29:56.124Z,59.23
2022-10-22T12:32:28.933Z,58.91
2022-10-22T12:34:56.204Z,59.00
2022-10-22T12:37:23.459Z,60.28
2022-10-22T12:39:51.234Z,60.39
2022-10-22T12:42:18.428Z,59.19
2022-10-22T12:44:46.164Z,60.00
2022-10-22T12:47:17.985Z,59.98
2022-10-22T12:49:50.856Z,60.94
2022-10-22T12:52:23.328Z,63.33
2022-10-22T12:54:52.080Z,65.32
2022-10-22T12:57:20.179Z,67.18
2022-10-22T12:59:50.404Z,68.21
2022-10-22T13:02:26.190Z,70.26
2022-10-22T13:05:26.965Z,71.22
2022-10-22T13:08:10.212Z,71.38
2022-10-22T13:10:40.531Z,71.83
2022-10-22T13:13:31.427Z,72.43
2022-10-22T13:16:24.345Z,73.04
2022-10-22T13:18:53.007Z,74.72
2022-10-22T13:21:40.326Z,75.54
2022-10-22T13:24:23.635Z,75.59
2022-10-22T13:26:53.343Z,76.24
2022-10-22T13:29:22.648Z,76.94
2022-10-22T13:31:52.444Z,77.94
2022-10-22T13:34:23.323Z,78.63
2022-10-22T13:36:50.948Z,79.67
2022-10-22T13:39:24.022Z,80.09
2022-10-22T13:41:59.271Z,81.43
2022-10-22T13:44:27.723Z,82.19
2022-10-22T13:46:55.756Z,82.70
2022-10-22T13:49:23.318Z,83.23
2022-10-22T13:51:51.275Z,83.59
2022-10-22T13:54:22.602Z,84.05
2022-10-22T13:56:49.774Z,85.13
2022-10-22T13:59:19.770Z,85.41
2022-10-22T14:01:50.632Z,86.02
2022-10-22T14:04:18.011Z,86.63
2022-10-22T14:06:45.362Z,88.09
2022-10-22T14:09:15.252Z,88.21
2022-10-22T14:11:42.801Z,89.31
2022-10-22T14:14:13.703Z,89.85
2022-10-22T14:16:40.872Z,89.79
2022-10-22T14:19:14.890Z,90.05
2022-10-22T14:21:42.109Z,90.58
2022-10-22T14:24:13.083Z,91.65
2022-10-22T14:26:41.064Z,92.26
2022-10-22T14:29:09.691Z,93.07
2022-10-22T14:31:44.234Z,93.20
2022-10-22T14:34:15.361Z,93.65
2022-10-22T14:36:45.630Z,94.24
2022-10-22T14:39:13.618Z,94.87
2022-10-22T14:41:41.250Z,95.84
2022-10-22T14:44:12.154Z,97.16
2022-10-22T14:46:42.232Z,97.67
2022-10-22T14:49:09.899Z,97.98
2022-10-22T14:51:37.238Z,98.26
2022-10-22T14:54:04.895Z,98.93
2022-10-22T14:56:32.299Z,99.73
2022-10-22T14:58:59.574Z,99.99
2022-10-22T15:01:27.018Z,100.00
2022-10-22T15:03:54.235Z,100.00
2022-10-22T15:06:21.978Z,100.00
2022-10-22T15:08:49.326Z,100.00
2022-10-22T15:11:16.557Z,100.00
2022-10-22T15:13:43.916Z,100.00
2022-10-22T15:16:13.392Z,100.00
2022-10-22T15:18:40.707Z,100.00
2022-10-22T15:21:18.283Z,100.00
2022-10-22T15:23:45.816Z,100.00
2022-10-22T15:26:14.201Z,100.00
2022-10-22T15:28:42.512Z,100.00
2022-10-22T15:31:13.683Z,100.00
2022-10-22T15:33:42.697Z,100.00
2022-10-22T15:36:16.268Z,100.00
2022-10-22T15:38:43.848Z,100.00
2022-10-22T15:41:13.043Z,100.00
2022-10-22T15:43:40.263Z,100.00
2022-10-22T15:46:19.173Z,100.00
2022-10-22T15:48:46.623Z,100.00
2022-10-22T15:51:17.258Z,100.00
2022-10-22T15:53:50.959Z,100.00
2022-10-22T15:56:18.394Z,100.00
2022-10-22T15:58:47.212Z,100.00
2022-10-22T16:01:14.742Z,100.00
2022-10-22T16:03:42.198Z,100.00
2022-10-22T16:06:09.688Z,100.00
2022-10-22T16:08:37.628Z,100.00
2022-10-22T16:11:05.207Z,100.00
2022-10-22T16:13:35.416Z,100.00
2022-10-22T16:16:07.585Z,100.00
2022-10-22T16:18:34.829Z,100.00
2022-10-22T16:21:02.128Z,100.00
2022-10-22T16:23:29.617Z,100.00
2022-10-22T16:26:01.473Z,100.00
2022-10-22T16:28:28.892Z,100.00
2022-10-22T16:30:56.874Z,100.00
2022-10-22T16:33:24.303Z,100.00
2022-10-22T16:35:51.779Z,100.00
2022-10-22T16:38:19.012Z,100.00
2022-10-22T16:40:46.251Z,100.00
2022-10-22T16:43:13.596Z,100.00
2022-10-22T16:45:50.657Z,100.00
2022-10-22T16:48:18.257Z,100.00
2022-10-22T16:50:45.710Z,100.00
2022-10-22T16:53:12.985Z,100.00
2022-10-22T16:55:43.109Z,100.00
2022-10-22T16:58:10.374Z,100.00
2022-10-22T17:00:37.681Z,100.00
2022-10-22T17:03:06.961Z,100.00
2022-10-22T17:05:36.078Z,100.00
2022-10-22T17:08:03.530Z,100.00
2022-10-22T17:10:30.714Z,100.00
2022-10-22T17:12:57.806Z,100.00
2022-10-22T17:15:25.162Z,100.00
2022-10-22T17:17:53.367Z,100.00
2022-10-22T17:20:20.964Z,100.00
2022-10-22T17:22:49.174Z,100.00
2022-10-22T17:25:21.888Z,100.00
2022-10-22T17:27:49.755Z,100.00
2022-10-22T17:30:23.340Z,100.00
2022-10-22T17:32:54.765Z,100.00
2022-10-22T17:35:22.058Z,100.00
2022-10-22T17:37:49.272Z,100.00
2022-10-22T17:40:16.372Z,100.00
2022-10-22T17:42:45.082Z,100.00
2022-10-22T17:45:12.392Z,100.00
2022-10-22T17:47:39.949Z,100.00
2022-10-22T17:50:08.294Z,100.00
2022-10-22T17:52:35.724Z,100.00
2022-10-22T17:55:03.700Z,100.00
2022-10-22T17:57:30.886Z,100.00
2022-10-22T17:59:58.065Z,100.00
2022-10-22T18:02:25.276Z,100.00
2022-10-22T18:04:53.050Z,100.00
2022-10-22T18:07:20.512Z,100.00
2022-10-22T18:09:48.016Z,100.00
2022-10-22T18:12:17.500Z,100.00
2022-10-22T18:14:46.423Z,100.00
2022-10-22T18:19:41.841Z,100.00
2022-10-22T18:22:09.822Z,100.00
2022-10-22T18:24:38.396Z,100.00
2022-10-22T18:27:05.808Z,100.00
2022-10-22T18:29:33.150Z,100.00
2022-10-22T18:32:00.425Z,100.00
2022-10-22T18:34:28.845Z,100.00
2022-10-22T18:36:57.536Z,100.00
2022-10-22T18:39:24.886Z,100.00
2022-10-22T18:41:52.755Z,100.00
2022-10-22T18:44:19.849Z,100.00
2022-10-22T18:46:47.124Z,100.00
2022-10-22T18:49:18.351Z,100.00
2022-10-22T18:51:48.283Z,100.00
2022-10-22T18:54:23.096Z,100.00
2022-10-22T18:56:59.340Z,100.00
2022-10-22T18:59:29.579Z,100.00
2022-10-22T19:02:00.052Z,100.00
2022-10-22T19:04:36.166Z,100.00
2022-10-22T19:07:07.185Z,100.00
2022-10-22T19:09:37.742Z,100.00
2022-10-22T19:12:16.966Z,100.00
2022-10-22T19:14:44.713Z,100.00
2022-10-22T19:17:11.909Z,100.00
2022-10-22T19:19:40.260Z,100.00
2022-10-22T19:22:07.247Z,100.00
2022-10-22T19:24:34.555Z,100.00
2022-10-22T19:27:05.550Z,100.00
2022-10-22T19:29:32.695Z,100.00
2022-10-22T19:31:59.976Z,100.00
2022-10-22T19:34:30.270Z,100.00
2022-10-22T19:36:58.031Z,100.00
2022-10-22T19:39:25.212Z,100.00
2022-10-22T19:41:52.385Z,100.00
2022-10-22T19:44:19.482Z,100.00
2022-10-22T19:46:46.760Z,100.00
2022-10-22T19:49:17.656Z,100.00
2022-10-22T19:51:48.254Z,100.00
2022-10-22T19:54:18.007Z,100.00
2022-10-22T19:56:45.805Z,100.00
2022-10-22T19:59:15.181Z,100.00
2022-10-22T20:01:42.809Z,100.00
2022-10-22T20:04:15.203Z,100.00
2022-10-22T20:06:42.900Z,100.00
2022-10-22T20:09:10.709Z,100.00
2022-10-22T20:11:39.225Z,100.00
2022-10-22T20:14:07.449Z,100.00
2022-10-22T20:16:35.661Z,100.00
2022-10-22T20:19:10.282Z,100.00
2022-10-22T20:21:50.134Z,100.00
2022-10-22T20:24:20.438Z,100.00
2022-10-22T20:26:47.872Z,100.00
2022-10-22T20:29:18.581Z,100.00
2022-10-22T20:31:46.882Z,100.00
2022-10-22T20:34:14.343Z,100.00
2022-10-22T20:36:41.817Z,100.00
2022-10-22T20:39:12.658Z,100.00
2022-10-22T20:41:41.115Z,100.00
2022-10-22T20:44:16.035Z,100.00
2022-10-22T20:46:43.627Z,100.00
2022-10-22T20:49:20.185Z,100.00
2022-10-22T20:51:47.426Z,100.00
2022-10-22T20:54:15.558Z,100.00
2022-10-22T20:56:43.439Z,100.00
2022-10-22T20:59:12.113Z,100.00
2022-10-22T21:01:48.923Z,100.00
2022-10-22T21:04:18.073Z,100.00
2022-10-22T21:06:45.706Z,100.00
2022-10-22T21:09:14.174Z,100.00
2022-10-22T21:11:42.480Z,100.00
2022-10-22T21:14:11.445Z,100.00
2022-10-22T21:16:44.133Z,100.00
2022-10-22T21:19:11.446Z,100.00
2022-10-22T21:21:38.578Z,100.00
2022-10-22T21:24:06.114Z,100.00
2022-10-22T21:26:39.576Z,100.00
2022-10-22T21:29:08.270Z,100.00
2022-10-22T21:31:37.623Z,100.00
2022-10-22T21:34:04.973Z,100.00
2022-10-22T21:36:32.240Z,100.00
2022-10-22T21:39:00.892Z,100.00
2022-10-22T21:41:28.116Z,100.00
2022-10-22T21:43:55.736Z,100.00
2022-10-22T21:46:26.639Z,100.00
2022-10-22T21:49:04.043Z,100.00
2022-10-22T21:51:33.294Z,100.00
2022-10-22T21:54:01.184Z,100.00
2022-10-22T21:56:33.860Z,100.00
2022-10-22T22:02:35.443Z,100.00
2022-10-22T22:05:04.206Z,100.00
2022-10-22T22:07:32.988Z,100.00
2022-10-22T22:10:01.505Z,100.00
2022-10-22T22:12:30.078Z,100.00
2022-10-22T22:14:58.567Z,100.00
2022-10-22T22:17:27.183Z,100.00
2022-10-22T22:19:55.716Z,100.00
2022-10-22T22:22:25.366Z,100.00
2022-10-22T22:24:54.315Z,100.00
2022-10-22T22:27:23.212Z,100.00
2022-10-22T22:29:54.004Z,100.00
2022-10-22T22:32:22.532Z,100.00
2022-10-22T22:34:51.092Z,100.00
2022-10-22T22:37:19.578Z,100.00
2022-10-22T22:39:48.150Z,100.00
2022-10-22T22:42:16.820Z,100.00
2022-10-22T22:44:45.874Z,100.00
2022-10-22T22:47:14.405Z,100.00
2022-10-22T22:49:42.963Z,100.00
2022-10-22T22:52:11.702Z,100.00
2022-10-22T22:54:40.262Z,100.00
2022-10-22T22:57:08.856Z,100.00
2022-10-22T22:59:37.614Z,100.00
2022-10-22T23:02:06.176Z,100.00
2022-10-22T23:04:34.848Z,100.00
2022-10-22T23:07:03.373Z,100.00
2022-10-22T23:09:32.287Z,100.00
2022-10-22T23:12:00.858Z,100.00
2022-10-22T23:14:29.400Z,100.00
2022-10-22T23:16:57.982Z,100.00
2022-10-22T23:19:26.694Z,100.00
2022-10-22T23:21:56.204Z,100.00
2022-10-22T23:24:28.181Z,100.00
2022-10-22T23:27:00.976Z,100.00
2022-10-22T23:29:33.683Z,100.00
2022-10-22T23:32:06.402Z,100.00
2022-10-22T23:34:36.965Z,100.00
2022-10-22T23:37:05.549Z,100.00
2022-10-22T23:39:34.213Z,100.00
2022-10-22T23:42:02.705Z,100.00
2022-10-22T23:44:31.190Z,100.00
2022-10-22T23:46:59.771Z,100.00
2022-10-22T23:49:28.458Z,100.00
2022-10-22T23:51:56.914Z,100.00
2022-10-22T23:54:25.607Z,100.00
2022-10-22T23:56:55.894Z,100.00
2022-10-22T23:59:25.650Z,100.00
